createdAt,value
2018-09-18T00:02:23.290Z,67.30
2018-09-18T00:04:50.851Z,68.00
2018-09-18T00:07:18.591Z,67.20
2018-09-18T00:09:46.193Z,67.20
2018-09-18T00:12:13.840Z,67.20
2018-09-18T00:14:41.435Z,67.10
2018-09-18T00:17:08.978Z,67.40
2018-09-18T00:19:36.606Z,67.40
2018-09-18T00:22:04.624Z,67.30
2018-09-18T00:24:32.730Z,67.30
2018-09-18T00:27:00.709Z,67.30
2018-09-18T00:29:28.730Z,67.40
2018-09-18T00:31:56.316Z,67.30
2018-09-18T00:34:24.277Z,67.20
2018-09-18T00:36:52.430Z,67.30
2018-09-18T00:39:20.171Z,67.30
2018-09-18T00:41:47.730Z,67.40
2018-09-18T00:44:15.291Z,67.50
2018-09-18T00:46:42.855Z,67.40
2018-09-18T00:49:10.458Z,67.50
2018-09-18T00:51:38.016Z,67.40
2018-09-18T00:54:05.942Z,67.50
2018-09-18T00:56:33.931Z,67.40
2018-09-18T00:59:01.930Z,67.50
2018-09-18T01:01:29.934Z,67.40
2018-09-18T01:03:57.620Z,67.50
2018-09-18T01:06:25.544Z,67.40
2018-09-18T01:08:53.597Z,67.40
2018-09-18T01:11:21.266Z,67.40
2018-09-18T01:13:48.963Z,67.30
2018-09-18T01:16:16.540Z,67.40
2018-09-18T01:18:44.090Z,67.30
2018-09-18T01:21:12.131Z,67.40
2018-09-18T01:23:39.740Z,67.40
2018-09-18T01:26:07.500Z,67.40
2018-09-18T01:28:35.824Z,67.30
2018-09-18T01:31:04.120Z,67.30
2018-09-18T01:33:32.112Z,67.20
2018-09-18T01:36:00.608Z,67.20
2018-09-18T01:38:29.039Z,67.20
2018-09-18T01:40:56.658Z,67.20
2018-09-18T01:43:24.826Z,67.20
2018-09-18T01:45:52.571Z,67.30
2018-09-18T01:48:22.211Z,67.30
2018-09-18T01:50:49.775Z,67.40
2018-09-18T01:53:17.393Z,67.30
2018-09-18T01:55:44.989Z,68.10
2018-09-18T01:58:12.554Z,67.20
2018-09-18T02:00:40.096Z,67.30
2018-09-18T02:03:07.708Z,67.30
2018-09-18T02:05:35.499Z,67.30
2018-09-18T02:08:03.339Z,67.20
2018-09-18T02:10:31.382Z,67.30
2018-09-18T02:12:59.538Z,67.20
2018-09-18T02:15:27.285Z,67.10
2018-09-18T02:17:55.052Z,67.20
2018-09-18T02:20:22.620Z,67.30
2018-09-18T02:22:50.167Z,67.20
2018-09-18T02:25:17.724Z,67.20
2018-09-18T02:27:45.281Z,67.20
2018-09-18T02:30:12.836Z,67.20
2018-09-18T02:32:40.384Z,67.20
2018-09-18T02:35:07.943Z,67.10
2018-09-18T02:37:35.757Z,67.10
2018-09-18T02:40:03.543Z,67.10
2018-09-18T02:42:31.837Z,67.10
2018-09-18T02:44:59.976Z,67.20
2018-09-18T02:47:27.856Z,67.10
2018-09-18T02:49:55.533Z,67.10
2018-09-18T02:52:23.159Z,67.20
2018-09-18T02:54:50.775Z,67.10
2018-09-18T02:57:18.377Z,67.20
2018-09-18T02:59:45.933Z,67.20
2018-09-18T03:02:13.500Z,67.20
2018-09-18T03:04:41.283Z,67.20
2018-09-18T03:07:08.863Z,67.30
2018-09-18T03:09:36.640Z,67.20
2018-09-18T03:12:04.368Z,67.20
2018-09-18T03:14:32.595Z,67.20
2018-09-18T03:17:00.860Z,67.30
2018-09-18T03:19:28.684Z,67.10
2018-09-18T03:21:56.281Z,67.20
2018-09-18T03:24:24.108Z,68.00
2018-09-18T03:26:52.021Z,67.20
2018-09-18T03:29:19.674Z,67.20
2018-09-18T03:31:47.207Z,67.20
2018-09-18T03:34:14.839Z,67.20
2018-09-18T03:36:42.430Z,67.30
2018-09-18T03:39:09.977Z,67.20
2018-09-18T03:41:37.538Z,67.30
2018-09-18T03:44:05.313Z,67.10
2018-09-18T03:46:33.184Z,67.20
2018-09-18T03:49:01.124Z,67.20
2018-09-18T03:51:29.311Z,68.00
2018-09-18T03:53:56.983Z,67.20
2018-09-18T03:56:24.814Z,67.20
2018-09-18T03:58:52.397Z,67.20
2018-09-18T04:01:20.132Z,67.20
2018-09-18T04:03:47.705Z,67.10
2018-09-18T04:06:15.313Z,67.20
2018-09-18T04:08:42.894Z,67.30
2018-09-18T04:11:10.660Z,67.30
2018-09-18T04:13:38.287Z,67.20
2018-09-18T04:16:09.443Z,67.20
2018-09-18T04:18:37.478Z,67.20
2018-09-18T04:21:05.640Z,67.30
2018-09-18T04:23:33.647Z,67.10
2018-09-18T04:26:01.491Z,67.10
2018-09-18T04:28:29.395Z,67.70
2018-09-18T04:30:57.065Z,66.90
2018-09-18T04:33:24.658Z,66.90
2018-09-18T04:35:52.453Z,66.90
2018-09-18T04:38:20.209Z,66.80
2018-09-18T04:40:48.237Z,66.90
2018-09-18T04:43:15.821Z,67.00
2018-09-18T04:45:43.378Z,67.00
2018-09-18T04:48:11.420Z,67.00
2018-09-18T04:50:38.988Z,67.00
2018-09-18T04:53:06.844Z,67.00
2018-09-18T04:55:34.792Z,67.00
2018-09-18T04:58:02.797Z,66.90
2018-09-18T05:00:31.172Z,67.00
2018-09-18T05:02:59.435Z,66.80
2018-09-18T05:05:27.091Z,66.90
2018-09-18T05:07:54.848Z,66.80
2018-09-18T05:10:22.380Z,66.80
2018-09-18T05:12:50.694Z,66.90
2018-09-18T05:15:18.245Z,66.90
2018-09-18T05:17:46.218Z,66.80
2018-09-18T05:20:13.864Z,66.70
2018-09-18T05:22:41.478Z,66.70
2018-09-18T05:25:09.525Z,66.70
2018-09-18T05:27:37.137Z,66.70
2018-09-18T05:30:05.145Z,66.60
2018-09-18T05:32:32.916Z,66.70
2018-09-18T05:35:00.631Z,66.70
2018-09-18T05:37:28.533Z,66.80
2018-09-18T05:39:56.113Z,67.60
2018-09-18T05:42:23.764Z,66.80
2018-09-18T05:44:51.354Z,66.80
2018-09-18T05:47:18.976Z,66.80
2018-09-18T05:49:46.528Z,66.90
2018-09-18T05:52:14.089Z,66.80
2018-09-18T05:54:41.751Z,67.40
2018-09-18T05:57:09.567Z,66.30
2018-09-18T05:59:37.264Z,66.20
2018-09-18T06:02:05.169Z,66.10
2018-09-18T06:04:33.114Z,65.80
2018-09-18T06:07:01.114Z,65.70
2018-09-18T06:09:29.505Z,65.50
2018-09-18T06:11:57.766Z,65.40
2018-09-18T06:14:25.370Z,65.40
2018-09-18T06:16:53.285Z,65.30
2018-09-18T06:19:21.125Z,65.10
2018-09-18T06:21:48.619Z,64.80
2018-09-18T06:24:17.115Z,65.00
2018-09-18T06:26:45.786Z,65.00
2018-09-18T06:29:13.361Z,65.10
2018-09-18T06:31:40.898Z,64.90
2018-09-18T06:34:08.556Z,64.90
2018-09-18T06:36:36.258Z,64.90
2018-09-18T06:39:05.456Z,64.80
2018-09-18T06:41:33.294Z,64.80
2018-09-18T06:44:01.467Z,64.50
2018-09-18T06:46:29.348Z,64.70
2018-09-18T06:48:57.124Z,64.70
2018-09-18T06:51:25.494Z,64.70
2018-09-18T06:53:53.464Z,64.60
2018-09-18T06:56:21.142Z,64.60
2018-09-18T06:58:48.845Z,64.60
2018-09-18T07:01:16.439Z,64.50
2018-09-18T07:03:44.056Z,64.50
2018-09-18T07:06:11.953Z,64.90
2018-09-18T07:08:39.733Z,64.40
2018-09-18T07:11:07.338Z,64.40
2018-09-18T07:13:35.331Z,64.40
2018-09-18T07:16:02.979Z,64.30
2018-09-18T07:18:30.746Z,64.40
2018-09-18T07:20:58.849Z,64.30
2018-09-18T07:23:26.486Z,64.40
2018-09-18T07:25:56.302Z,64.30
2018-09-18T07:28:23.916Z,64.30
2018-09-18T07:30:51.701Z,64.30
2018-09-18T07:33:19.492Z,64.50
2018-09-18T07:35:47.287Z,64.40
2018-09-18T07:38:14.871Z,64.50
2018-09-18T07:40:42.443Z,64.40
2018-09-18T07:43:10.220Z,64.40
2018-09-18T07:45:38.243Z,64.40
2018-09-18T07:48:06.184Z,64.50
2018-09-18T07:50:33.950Z,64.40
2018-09-18T07:53:02.106Z,64.40
2018-09-18T07:55:30.613Z,64.40
2018-09-18T07:57:58.847Z,64.40
2018-09-18T08:00:26.491Z,64.30
2018-09-18T08:02:54.081Z,64.40
2018-09-18T08:05:21.757Z,64.30
2018-09-18T08:07:49.380Z,64.10
2018-09-18T08:10:16.956Z,64.20
2018-09-18T08:12:44.527Z,64.20
2018-09-18T08:15:12.128Z,64.30
2018-09-18T08:17:39.717Z,64.30
2018-09-18T08:20:07.376Z,64.30
2018-09-18T08:22:35.245Z,64.20
2018-09-18T08:25:03.223Z,64.20
2018-09-18T08:27:31.627Z,64.20
2018-09-18T08:29:59.843Z,64.20
2018-09-18T08:32:28.238Z,64.10
2018-09-18T08:34:56.290Z,64.10
2018-09-18T08:37:24.328Z,64.10
2018-09-18T08:39:52.240Z,64.00
2018-09-18T08:42:19.847Z,64.10
2018-09-18T08:44:47.360Z,64.10
2018-09-18T08:47:14.917Z,64.20
2018-09-18T08:49:42.516Z,64.20
2018-09-18T08:52:10.210Z,64.10
2018-09-18T08:54:37.714Z,64.00
2018-09-18T08:57:05.928Z,64.10
2018-09-18T08:59:33.674Z,64.10
2018-09-18T09:02:01.541Z,64.10
2018-09-18T09:04:29.364Z,64.00
2018-09-18T09:06:57.704Z,64.00
2018-09-18T09:09:25.506Z,64.00
2018-09-18T09:11:53.623Z,64.00
2018-09-18T09:14:21.251Z,63.90
2018-09-18T09:16:48.779Z,63.90
2018-09-18T09:19:16.412Z,64.00
2018-09-18T09:21:44.019Z,64.00
2018-09-18T09:24:12.151Z,64.00
2018-09-18T09:26:39.923Z,63.90
2018-09-18T09:29:07.509Z,63.90
2018-09-18T09:31:35.599Z,63.50
2018-09-18T09:34:03.685Z,64.00
2018-09-18T09:36:31.851Z,63.90
2018-09-18T09:38:59.717Z,63.90
2018-09-18T09:41:28.077Z,63.90
2018-09-18T09:43:55.844Z,64.00
2018-09-18T09:46:23.581Z,63.90
2018-09-18T09:48:51.357Z,63.90
2018-09-18T09:51:19.277Z,63.80
2018-09-18T09:53:46.894Z,63.80
2018-09-18T09:56:14.452Z,63.80
2018-09-18T09:58:42.093Z,63.70
2018-09-18T10:01:15.305Z,63.80
2018-09-18T10:03:43.015Z,63.80
2018-09-18T10:06:10.805Z,63.80
2018-09-18T10:08:38.474Z,63.90
2018-09-18T10:11:06.130Z,64.00
2018-09-18T10:13:34.022Z,64.00
2018-09-18T10:16:02.143Z,64.00
2018-09-18T10:18:30.363Z,63.90
2018-09-18T10:20:58.281Z,63.80
2018-09-18T10:23:26.002Z,63.80
2018-09-18T10:25:53.716Z,64.50
2018-09-18T10:28:21.291Z,63.80
2018-09-18T10:30:48.960Z,63.70
2018-09-18T10:33:16.536Z,63.70
2018-09-18T10:35:44.090Z,63.80
2018-09-18T10:38:11.656Z,63.60
2018-09-18T10:40:39.268Z,63.60
2018-09-18T10:43:06.990Z,63.60
2018-09-18T10:45:34.932Z,63.70
2018-09-18T10:48:02.836Z,63.50
2018-09-18T10:50:31.312Z,63.50
2018-09-18T10:52:59.591Z,63.50
2018-09-18T10:55:27.445Z,63.50
2018-09-18T10:57:55.027Z,63.50
2018-09-18T11:00:23.242Z,63.50
2018-09-18T11:02:50.994Z,63.70
2018-09-18T11:05:18.668Z,63.60
2018-09-18T11:07:46.552Z,63.70
2018-09-18T11:10:14.080Z,63.70
2018-09-18T11:12:41.758Z,63.80
2018-09-18T11:15:09.268Z,63.80
2018-09-18T11:17:37.054Z,63.70
2018-09-18T11:20:05.066Z,63.80
2018-09-18T11:22:32.916Z,63.70
2018-09-18T11:25:00.765Z,63.80
2018-09-18T11:27:28.608Z,63.70
2018-09-18T11:29:56.201Z,63.60
2018-09-18T11:32:23.885Z,63.70
2018-09-18T11:34:51.832Z,63.80
2018-09-18T11:37:19.421Z,63.80
2018-09-18T11:39:47.069Z,63.70
2018-09-18T11:42:14.766Z,63.80
2018-09-18T11:44:42.487Z,63.60
2018-09-18T11:47:10.179Z,63.40
2018-09-18T11:49:37.902Z,63.50
2018-09-18T11:52:07.500Z,63.30
2018-09-18T11:54:35.158Z,63.30
2018-09-18T11:57:03.271Z,63.40
2018-09-18T11:59:31.388Z,63.50
2018-09-18T12:01:59.341Z,63.40
2018-09-18T12:04:27.021Z,63.50
2018-09-18T12:06:54.757Z,63.50
2018-09-18T12:09:22.781Z,63.50
2018-09-18T12:11:50.387Z,63.60
2018-09-18T12:14:18.024Z,63.60
2018-09-18T12:16:45.699Z,63.50
2018-09-18T12:19:13.316Z,63.60
2018-09-18T12:21:40.953Z,63.50
2018-09-18T12:24:08.814Z,63.60
2018-09-18T12:26:36.695Z,63.50
2018-09-18T12:29:04.467Z,63.50
2018-09-18T12:31:32.334Z,63.50
2018-09-18T12:34:00.260Z,63.50
2018-09-18T12:36:28.038Z,63.80
2018-09-18T12:38:55.791Z,63.50
2018-09-18T12:41:23.536Z,63.50
2018-09-18T12:43:51.098Z,63.50
2018-09-18T12:46:18.762Z,63.50
2018-09-18T12:48:46.464Z,63.50
2018-09-18T12:51:14.074Z,63.50
2018-09-18T12:53:41.851Z,63.50
2018-09-18T12:56:09.564Z,63.50
2018-09-18T12:58:37.143Z,64.30
2018-09-18T13:01:05.123Z,63.50
2018-09-18T13:03:33.200Z,63.50
2018-09-18T13:06:01.219Z,63.40
2018-09-18T13:08:29.330Z,63.50
2018-09-18T13:10:57.303Z,63.50
2018-09-18T13:13:25.049Z,63.40
2018-09-18T13:15:52.662Z,63.50
2018-09-18T13:18:20.252Z,63.40
2018-09-18T13:20:47.822Z,63.50
2018-09-18T13:23:15.393Z,63.50
2018-09-18T13:25:42.981Z,63.50
2018-09-18T13:28:10.562Z,63.50
2018-09-18T13:30:38.201Z,63.50
2018-09-18T13:33:05.920Z,63.50
2018-09-18T13:35:34.519Z,63.50
2018-09-18T13:38:02.359Z,63.40
2018-09-18T13:40:30.415Z,63.40
2018-09-18T13:42:58.698Z,63.30
2018-09-18T13:45:26.292Z,63.40
2018-09-18T13:47:54.109Z,63.40
2018-09-18T13:50:21.863Z,63.40
2018-09-18T13:52:49.426Z,63.40
2018-09-18T13:55:17.074Z,63.40
2018-09-18T13:57:44.671Z,63.40
2018-09-18T14:00:12.240Z,63.40
2018-09-18T14:02:39.885Z,63.40
2018-09-18T14:05:07.514Z,63.30
2018-09-18T14:07:35.399Z,63.40
2018-09-18T14:10:03.300Z,63.40
2018-09-18T14:12:31.119Z,63.30
2018-09-18T14:14:59.095Z,63.30
2018-09-18T14:17:26.452Z,63.20
2018-09-18T14:19:54.205Z,63.20
2018-09-18T14:22:21.799Z,63.20
2018-09-18T14:24:49.538Z,63.10
2018-09-18T14:27:17.154Z,63.20
2018-09-18T14:29:44.724Z,63.20
2018-09-18T14:32:12.326Z,63.10
2018-09-18T14:34:40.186Z,63.20
2018-09-18T14:37:07.846Z,63.20
2018-09-18T14:39:35.628Z,63.20
2018-09-18T14:42:03.694Z,63.20
2018-09-18T14:44:32.114Z,63.20
2018-09-18T14:47:00.093Z,63.20
2018-09-18T14:49:27.871Z,63.20
2018-09-18T14:51:55.511Z,63.30
2018-09-18T14:54:23.077Z,63.30
2018-09-18T14:56:50.647Z,63.20
2018-09-18T14:59:18.198Z,63.30
2018-09-18T15:01:45.888Z,63.40
2018-09-18T15:04:13.655Z,63.30
2018-09-18T15:06:41.684Z,63.30
2018-09-18T15:09:10.544Z,63.40
2018-09-18T15:11:38.273Z,63.40
2018-09-18T15:14:05.978Z,63.30
2018-09-18T15:16:33.581Z,63.40
2018-09-18T15:19:01.329Z,63.30
2018-09-18T15:21:28.976Z,63.30
2018-09-18T15:23:56.522Z,63.30
2018-09-18T15:26:24.080Z,63.40
2018-09-18T15:28:51.661Z,63.40
2018-09-18T15:31:19.282Z,63.40
2018-09-18T15:33:47.223Z,63.30
2018-09-18T15:36:15.229Z,63.30
2018-09-18T15:38:42.999Z,63.30
2018-09-18T15:41:11.032Z,63.30
2018-09-18T15:43:39.273Z,63.30
2018-09-18T15:46:07.098Z,63.30
2018-09-18T15:48:34.845Z,63.20
2018-09-18T15:51:02.437Z,63.30
2018-09-18T15:53:30.106Z,63.20
2018-09-18T15:55:57.874Z,63.20
2018-09-18T15:58:25.611Z,63.20
2018-09-18T16:00:53.268Z,63.20
2018-09-18T16:03:21.046Z,63.20
2018-09-18T16:05:48.877Z,63.10
2018-09-18T16:08:16.615Z,63.10
2018-09-18T16:10:44.428Z,63.10
2018-09-18T16:13:12.253Z,63.10
2018-09-18T16:15:40.158Z,63.70
2018-09-18T16:18:07.824Z,63.10
2018-09-18T16:20:35.432Z,62.80
2018-09-18T16:23:03.503Z,62.70
2018-09-18T16:25:31.171Z,62.60
2018-09-18T16:27:58.737Z,62.50
2018-09-18T16:30:27.615Z,62.40
2018-09-18T16:32:55.312Z,62.40
2018-09-18T16:35:22.972Z,62.30
2018-09-18T16:37:50.546Z,62.20
2018-09-18T16:40:18.309Z,62.20
2018-09-18T16:42:46.097Z,62.20
2018-09-18T16:45:14.270Z,62.20
2018-09-18T16:47:42.134Z,62.20
2018-09-18T16:50:10.405Z,62.10
2018-09-18T16:52:38.339Z,62.20
2018-09-18T16:55:06.050Z,62.10
2018-09-18T16:57:33.574Z,62.00
2018-09-18T17:00:01.291Z,62.00
2018-09-18T17:02:29.304Z,61.90
2018-09-18T17:04:56.873Z,61.80
2018-09-18T17:07:24.459Z,61.80
2018-09-18T17:09:52.136Z,61.80
2018-09-18T17:12:20.251Z,61.80
2018-09-18T17:14:47.933Z,61.80
2018-09-18T17:17:16.044Z,61.70
2018-09-18T17:19:44.229Z,61.70
2018-09-18T17:22:12.208Z,61.60
2018-09-18T17:24:40.161Z,61.60
2018-09-18T17:27:07.839Z,61.40
2018-09-18T17:29:35.550Z,61.70
2018-09-18T17:32:03.368Z,61.70
2018-09-18T17:34:32.441Z,61.70
2018-09-18T17:37:00.005Z,61.80
2018-09-18T17:39:27.972Z,61.70
2018-09-18T17:41:55.812Z,61.70
2018-09-18T17:44:23.599Z,61.70
2018-09-18T17:46:51.267Z,61.60
2018-09-18T17:49:19.134Z,61.70
2018-09-18T17:51:46.938Z,61.70
2018-09-18T17:54:14.896Z,61.60
2018-09-18T17:56:42.845Z,61.70
2018-09-18T17:59:10.860Z,61.50
2018-09-18T18:01:38.617Z,61.70
2018-09-18T18:04:06.321Z,61.60
2018-09-18T18:06:33.940Z,61.70
2018-09-18T18:09:06.832Z,61.70
2018-09-18T18:11:34.646Z,61.60
2018-09-18T18:14:02.247Z,61.70
2018-09-18T18:16:29.949Z,61.70
2018-09-18T18:18:57.740Z,61.70
2018-09-18T18:21:25.408Z,61.70
2018-09-18T18:23:53.082Z,61.60
2018-09-18T18:26:20.844Z,61.50
2018-09-18T18:28:50.618Z,61.60
2018-09-18T18:31:18.595Z,61.40
2018-09-18T18:33:46.675Z,61.40
2018-09-18T18:36:15.183Z,61.50
2018-09-18T18:38:43.289Z,61.60
2018-09-18T18:41:11.359Z,61.50
2018-09-18T18:43:39.064Z,61.40
2018-09-18T18:46:07.039Z,61.40
2018-09-18T18:48:34.909Z,61.40
2018-09-18T18:51:02.614Z,61.40
2018-09-18T18:53:30.449Z,61.30
2018-09-18T18:55:58.495Z,61.30
2018-09-18T18:58:27.347Z,61.20
2018-09-18T19:00:55.051Z,61.10
2018-09-18T19:03:25.667Z,62.10
2018-09-18T19:05:53.814Z,61.40
2018-09-18T19:08:22.201Z,61.30
2018-09-18T19:10:51.093Z,61.30
2018-09-18T19:13:19.264Z,61.30
2018-09-18T19:15:47.319Z,62.10
2018-09-18T19:18:15.494Z,61.20
2018-09-18T19:20:43.711Z,61.20
2018-09-18T19:23:11.592Z,61.20
2018-09-18T19:25:40.220Z,61.20
2018-09-18T19:28:08.918Z,61.20
2018-09-18T19:30:36.592Z,61.20
2018-09-18T19:33:04.429Z,61.10
2018-09-18T19:35:32.078Z,61.30
2018-09-18T19:38:01.092Z,61.20
2018-09-18T19:40:29.229Z,61.80
2018-09-18T19:42:57.103Z,61.00
2018-09-18T19:45:24.752Z,61.10
2018-09-18T19:47:52.805Z,61.00
2018-09-18T19:50:21.138Z,60.90
2018-09-18T19:52:49.986Z,61.10
2018-09-18T19:55:18.201Z,61.00
2018-09-18T19:57:46.251Z,60.90
2018-09-18T20:00:15.870Z,60.70
2018-09-18T20:02:43.948Z,60.80
2018-09-18T20:05:12.776Z,60.90
2018-09-18T20:07:40.805Z,60.80
2018-09-18T20:10:08.391Z,60.70
2018-09-18T20:12:36.396Z,60.70
2018-09-18T20:15:04.052Z,60.40
2018-09-18T20:17:31.820Z,60.10
2018-09-18T20:19:59.648Z,59.80
2018-09-18T20:22:27.672Z,60.20
2018-09-18T20:24:55.688Z,60.40
2018-09-18T20:27:23.718Z,60.40
2018-09-18T20:29:51.635Z,60.30
2018-09-18T20:32:20.393Z,60.10
2018-09-18T20:34:47.984Z,61.00
2018-09-18T20:37:15.673Z,60.30
2018-09-18T20:39:43.269Z,60.20
2018-09-18T20:42:10.933Z,60.70
2018-09-18T20:44:38.487Z,60.40
2018-09-18T20:47:07.129Z,60.50
2018-09-18T20:49:34.732Z,60.80
2018-09-18T20:52:02.332Z,60.80
2018-09-18T20:54:30.007Z,61.20
2018-09-18T20:56:58.012Z,61.50
2018-09-18T20:59:25.953Z,61.10
2018-09-18T21:01:54.021Z,61.20
2018-09-18T21:04:22.177Z,61.00
2018-09-18T21:06:49.860Z,60.90
2018-09-18T21:09:18.213Z,60.80
2018-09-18T21:11:45.853Z,60.70
2018-09-18T21:14:13.570Z,60.90
2018-09-18T21:16:42.281Z,60.80
2018-09-18T21:19:10.995Z,60.70
2018-09-18T21:21:38.653Z,60.80
2018-09-18T21:24:06.298Z,60.80
2018-09-18T21:26:33.859Z,60.60
2018-09-18T21:29:01.886Z,60.50
2018-09-18T21:31:29.754Z,60.50
2018-09-18T21:33:57.572Z,60.50
2018-09-18T21:36:25.479Z,60.20
2018-09-18T21:38:53.466Z,60.20
2018-09-18T21:41:21.199Z,60.10
2018-09-18T21:43:48.780Z,60.20
2018-09-18T21:46:16.426Z,60.40
2018-09-18T21:48:44.001Z,60.10
2018-09-18T21:51:11.602Z,60.10
2018-09-18T21:53:39.205Z,60.40
2018-09-18T21:56:06.778Z,60.40
2018-09-18T21:58:34.362Z,60.50
2018-09-18T22:01:04.560Z,60.30
2018-09-18T22:03:32.108Z,60.50
2018-09-18T22:05:59.690Z,60.70
2018-09-18T22:08:27.391Z,60.70
2018-09-18T22:10:55.174Z,60.50
2018-09-18T22:13:22.915Z,61.20
2018-09-18T22:15:50.635Z,60.40
2018-09-18T22:18:18.277Z,60.40
2018-09-18T22:20:46.132Z,60.40
2018-09-18T22:23:13.973Z,60.40
2018-09-18T22:25:41.642Z,60.60
2018-09-18T22:28:10.372Z,60.70
2018-09-18T22:30:37.987Z,60.80
2018-09-18T22:33:05.623Z,60.90
2018-09-18T22:35:33.216Z,60.90
2018-09-18T22:38:00.789Z,60.90
2018-09-18T22:40:28.372Z,60.90
2018-09-18T22:42:56.134Z,61.10
2018-09-18T22:45:23.765Z,61.00
2018-09-18T22:47:51.500Z,61.30
2018-09-18T22:50:19.180Z,61.60
2018-09-18T22:52:46.833Z,61.60
2018-09-18T22:55:14.534Z,61.60
2018-09-18T22:57:42.166Z,61.80
2018-09-18T23:00:10.100Z,62.00
2018-09-18T23:02:37.764Z,62.10
2018-09-18T23:05:05.331Z,62.20
2018-09-18T23:07:32.924Z,62.30
2018-09-18T23:10:00.633Z,62.30
2018-09-18T23:12:28.315Z,62.40
2018-09-18T23:14:56.092Z,62.50
2018-09-18T23:17:23.814Z,62.50
2018-09-18T23:19:52.037Z,63.40
2018-09-18T23:22:19.670Z,62.60
2018-09-18T23:24:47.228Z,62.70
2018-09-18T23:27:15.008Z,62.70
2018-09-18T23:29:42.695Z,62.80
2018-09-18T23:32:10.269Z,62.80
2018-09-18T23:34:37.863Z,62.80
2018-09-18T23:37:05.479Z,62.80
2018-09-18T23:39:33.103Z,62.90
2018-09-18T23:42:00.704Z,62.90
2018-09-18T23:44:28.581Z,63.10
2018-09-18T23:46:56.307Z,63.10
2018-09-18T23:49:24.061Z,63.10
2018-09-18T23:51:51.754Z,63.20
2018-09-18T23:54:19.440Z,63.20
2018-09-18T23:56:47.037Z,63.30
2018-09-18T23:59:14.712Z,63.30
